Time;durP1;ratioP1;P1;durP2;ratioP2;P2;SDS_P1;SDS_P2;PMS_P1;PMS_P2;Temp;Humidity;BMP_temperature;BMP_pressure;BME280_temperature;BME280_humidity;BME280_pressure;Samples;Min_cycle;Max_cycle;Signal;HPM_P1;HPM_P2
2023/01/03 00:00:35;;;;;;;453.13;260.03;;;;;;;;;;4371058;32;323712;-93
2023/01/03 00:03:04;;;;;;;445.60;244.77;;;;;;;;;;4381373;32;356385;-92
2023/01/03 00:05:30;;;;;;;387.90;212.20;;;;;;;;;;4373103;32;319542;-92
2023/01/03 00:07:57;;;;;;;323.47;179.97;;;;;;;;;;4387259;32;318331;-90
2023/01/03 00:10:24;;;;;;;318.27;167.60;;;;;;;;;;4377667;32;320007;-92
2023/01/03 00:12:50;;;;;;;245.83;132.80;;;;;;;;;;4388549;32;319339;-92
2023/01/03 00:15:17;;;;;;;237.03;129.60;;;;;;;;;;4379958;32;320712;-91
2023/01/03 00:17:44;;;;;;;208.67;120.83;;;;;;;;;;4376505;32;319409;-94
2023/01/03 00:20:13;;;;;;;208.87;113.63;;;;;;;;;;4377963;32;319570;-95
2023/01/03 00:22:40;;;;;;;205.43;110.60;;;;;;;;;;4368043;32;319478;-94
2023/01/03 00:25:07;;;;;;;221.40;108.97;;;;;;;;;;4377266;32;319373;-90
2023/01/03 00:27:34;;;;;;;191.57;100.40;;;;;;;;;;4368771;32;319890;-96
2023/01/03 00:30:01;;;;;;;179.80;90.47;;;;;;;;;;4376928;32;319660;-95
2023/01/03 00:32:28;;;;;;;174.10;93.63;;;;;;;;;;4366657;32;318770;-95
2023/01/03 00:34:56;;;;;;;223.10;117.53;;;;;;;;;;4377875;32;318790;-96
2023/01/03 00:37:25;;;;;;;256.17;142.67;;;;;;;;;;4365984;32;319558;-95
2023/01/03 00:39:52;;;;;;;263.60;154.57;;;;;;;;;;4378101;32;319598;-95
2023/01/03 00:42:19;;;;;;;300.83;166.77;;;;;;;;;;4368630;32;319646;-96
2023/01/03 00:44:46;;;;;;;282.60;163.07;;;;;;;;;;4378881;32;320173;-96
2023/01/03 00:47:13;;;;;;;279.47;160.07;;;;;;;;;;4379071;32;319406;-96
2023/01/03 00:49:40;;;;;;;274.00;157.80;;;;;;;;;;4368991;32;319603;-96
2023/01/03 00:52:07;;;;;;;278.43;158.77;;;;;;;;;;4377926;32;319613;-95
2023/01/03 00:54:35;;;;;;;293.23;163.47;;;;;;;;;;4368213;32;319684;-95
2023/01/03 00:57:03;;;;;;;296.67;163.53;;;;;;;;;;4378360;32;319525;-96
2023/01/03 00:59:30;;;;;;;278.03;161.83;;;;;;;;;;4367874;32;319605;-94
2023/01/03 01:01:57;;;;;;;284.50;162.47;;;;;;;;;;4377047;32;319522;-95
2023/01/03 01:04:26;;;;;;;280.50;159.20;;;;;;;;;;4365391;32;319854;-95
2023/01/03 01:06:56;;;;;;;304.07;167.53;;;;;;;;;;4375839;32;319632;-96
2023/01/03 01:09:25;;;;;;;318.30;176.33;;;;;;;;;;4366482;32;319761;-95
2023/01/03 01:11:54;;;;;;;305.70;171.20;;;;;;;;;;4378817;32;319241;-96
2023/01/03 01:14:22;;;;;;;290.43;162.30;;;;;;;;;;4369062;32;319442;-93
2023/01/03 01:16:52;;;;;;;273.53;161.60;;;;;;;;;;4377942;32;319560;-95
2023/01/03 01:19:21;;;;;;;271.23;151.17;;;;;;;;;;4392360;27;318771;-80
2023/01/03 01:21:49;;;;;;;241.97;134.70;;;;;;;;;;4353779;32;359658;-80
2023/01/03 01:24:16;;;;;;;195.00;105.63;;;;;;;;;;4354045;32;320077;-81
2023/01/03 01:26:44;;;;;;;172.23;94.83;;;;;;;;;;4340986;32;419297;-80
2023/01/03 01:29:14;;;;;;;184.80;103.77;;;;;;;;;;4355021;32;325878;-80
2023/01/03 01:31:42;;;;;;;195.30;107.83;;;;;;;;;;4343703;32;319983;-80
2023/01/03 01:34:11;;;;;;;173.63;94.50;;;;;;;;;;4353086;32;320284;-79
2023/01/03 01:36:40;;;;;;;163.70;91.73;;;;;;;;;;4345214;32;318849;-81
2023/01/03 01:39:14;;;;;;;166.10;90.80;;;;;;;;;;4353737;32;318972;-79
2023/01/03 01:44:53;;;;;;;204.07;116.33;;;;;;;;;;4344207;32;347697;-80
2023/01/03 01:47:31;;;;;;;198.83;112.00;;;;;;;;;;4345344;32;319767;-80
2023/01/03 01:50:07;;;;;;;226.30;124.10;;;;;;;;;;4354344;32;319889;-80
2023/01/03 01:52:37;;;;;;;240.10;136.07;;;;;;;;;;4345370;32;319818;-80
2023/01/03 01:55:08;;;;;;;273.43;146.37;;;;;;;;;;4354041;32;320154;-80
2023/01/03 01:57:37;;;;;;;252.47;138.80;;;;;;;;;;4344662;32;320176;-80
2023/01/03 02:00:08;;;;;;;257.73;141.00;;;;;;;;;;4354066;32;319855;-79
2023/01/03 02:02:36;;;;;;;195.97;110.77;;;;;;;;;;4344232;32;319782;-79
2023/01/03 02:05:06;;;;;;;218.43;113.40;;;;;;;;;;4355546;32;320101;-79
2023/01/03 02:07:34;;;;;;;218.63;110.53;;;;;;;;;;4344835;32;320112;-80
2023/01/03 02:10:02;;;;;;;211.33;108.00;;;;;;;;;;4354502;32;320133;-80
2023/01/03 02:15:35;;;;;;;183.90;93.80;;;;;;;;;;4344616;32;319918;-80
2023/01/03 02:18:15;;;;;;;161.13;87.20;;;;;;;;;;4355622;32;319013;-78
2023/01/03 02:21:09;;;;;;;141.13;77.10;;;;;;;;;;4346502;32;318824;-80
2023/01/03 02:24:10;;;;;;;167.13;83.77;;;;;;;;;;4347451;32;318824;-79
2023/01/03 02:26:50;;;;;;;144.15;73.80;;;;;;;;;;4346984;32;318980;-81
2023/01/03 02:29:47;;;;;;;131.10;71.47;;;;;;;;;;4357791;32;319062;-80
2023/01/03 02:32:18;;;;;;;119.83;65.03;;;;;;;;;;4354689;32;418738;-80
2023/01/03 02:34:57;;;;;;;109.50;65.07;;;;;;;;;;4344926;32;419314;-79
2023/01/03 02:37:31;;;;;;;121.50;63.93;;;;;;;;;;4346319;32;353652;-80
2023/01/03 02:40:05;;;;;;;192.87;87.73;;;;;;;;;;4357532;32;319070;-81
2023/01/03 02:42:57;;;;;;;212.27;99.20;;;;;;;;;;4345447;32;318902;-80
2023/01/03 02:45:45;;;;;;;213.53;105.93;;;;;;;;;;4344570;32;318864;-79
2023/01/03 02:48:19;;;;;;;181.93;95.20;;;;;;;;;;4356184;32;319856;-79
2023/01/03 02:50:49;;;;;;;148.47;80.27;;;;;;;;;;4344346;32;422162;-79
2023/01/03 02:53:20;;;;;;;160.60;79.10;;;;;;;;;;4357850;32;318820;-79
2023/01/03 02:55:51;;;;;;;153.20;81.37;;;;;;;;;;4343455;32;419308;-80
2023/01/03 02:58:23;;;;;;;175.07;84.30;;;;;;;;;;4347089;32;319074;-81
2023/01/03 03:00:54;;;;;;;161.80;85.57;;;;;;;;;;4356541;32;318888;-80
2023/01/03 03:03:26;;;;;;;168.37;87.40;;;;;;;;;;4345868;32;319223;-80
2023/01/03 03:06:01;;;;;;;160.33;83.93;;;;;;;;;;4356451;32;318861;-79
2023/01/03 03:08:29;;;;;;;164.43;82.83;;;;;;;;;;4346128;32;319256;-81
2023/01/03 03:13:46;;;;;;;139.07;76.53;;;;;;;;;;4345857;32;318941;-80
2023/01/03 03:16:46;;;;;;;148.93;76.87;;;;;;;;;;4356536;32;319076;-80
2023/01/03 03:25:17;;;;;;;142.83;76.47;;;;;;;;;;4344887;32;390055;-79
2023/01/03 03:30:35;;;;;;;159.50;83.20;;;;;;;;;;4346809;32;319032;-79
2023/01/03 03:33:05;;;;;;;153.07;79.10;;;;;;;;;;4356080;32;318939;-80
2023/01/03 03:35:40;;;;;;;159.63;79.63;;;;;;;;;;4347053;32;319084;-79
2023/01/03 03:38:11;;;;;;;146.40;78.70;;;;;;;;;;4356548;32;318791;-80
2023/01/03 03:46:21;;;;;;;140.13;75.80;;;;;;;;;;4356304;32;318812;-79
2023/01/03 03:51:54;;;;;;;160.63;82.50;;;;;;;;;;4315525;32;389851;-80
2023/01/03 03:54:24;;;;;;;156.47;84.30;;;;;;;;;;4345645;32;319036;-79
2023/01/03 03:56:56;;;;;;;147.90;80.40;;;;;;;;;;4356713;32;317750;-79
2023/01/03 03:59:26;;;;;;;161.13;85.77;;;;;;;;;;4345725;32;319278;-79
2023/01/03 04:01:55;;;;;;;151.67;83.37;;;;;;;;;;4355995;32;318927;-79
2023/01/03 04:04:29;;;;;;;143.60;81.87;;;;;;;;;;4344154;32;374273;-79
2023/01/03 04:06:58;;;;;;;158.60;83.47;;;;;;;;;;4356439;32;318834;-79
2023/01/03 04:09:25;;;;;;;158.13;86.03;;;;;;;;;;4345135;32;318918;-79
2023/01/03 04:11:53;;;;;;;162.83;83.63;;;;;;;;;;4354563;32;347970;-80
2023/01/03 04:14:20;;;;;;;153.27;79.30;;;;;;;;;;4345218;32;318745;-79
2023/01/03 04:16:48;;;;;;;127.87;73.77;;;;;;;;;;4356367;32;318916;-79
2023/01/03 04:19:15;;;;;;;137.43;75.93;;;;;;;;;;4354775;32;318901;-80
2023/01/03 04:21:42;;;;;;;138.00;79.40;;;;;;;;;;4345894;32;319342;-79
2023/01/03 04:24:11;;;;;;;141.67;80.23;;;;;;;;;;4354263;32;333351;-79
2023/01/03 04:26:39;;;;;;;152.27;80.20;;;;;;;;;;4344390;32;318760;-80
2023/01/03 04:29:06;;;;;;;145.07;80.20;;;;;;;;;;4355282;32;318810;-80
2023/01/03 04:31:34;;;;;;;149.83;80.53;;;;;;;;;;4344206;32;318939;-79
2023/01/03 04:34:01;;;;;;;146.17;77.50;;;;;;;;;;4354536;32;319097;-80
2023/01/03 04:36:28;;;;;;;152.23;79.60;;;;;;;;;;4345878;32;319469;-80
2023/01/03 04:38:56;;;;;;;151.43;79.53;;;;;;;;;;4353879;32;318824;-80
2023/01/03 04:41:25;;;;;;;136.57;76.60;;;;;;;;;;4346026;32;319231;-79
2023/01/03 04:44:00;;;;;;;163.97;79.63;;;;;;;;;;4354699;32;319125;-79
2023/01/03 04:46:28;;;;;;;172.97;80.30;;;;;;;;;;4343133;32;318862;-79
2023/01/03 04:48:56;;;;;;;167.33;80.83;;;;;;;;;;4356035;32;319261;-81
2023/01/03 04:51:24;;;;;;;153.97;73.83;;;;;;;;;;4343392;32;318970;-79
2023/01/03 04:53:52;;;;;;;168.77;82.50;;;;;;;;;;4355181;32;322519;-80
2023/01/03 04:56:25;;;;;;;169.43;81.30;;;;;;;;;;4344359;32;319260;-81
2023/01/03 04:58:52;;;;;;;190.43;85.10;;;;;;;;;;4354777;32;319082;-79
2023/01/03 05:01:20;;;;;;;205.60;89.20;;;;;;;;;;4342401;32;357998;-80
2023/01/03 05:03:48;;;;;;;216.60;92.73;;;;;;;;;;4356094;32;319001;-80
2023/01/03 05:06:16;;;;;;;208.90;95.37;;;;;;;;;;4354862;32;318101;-80
2023/01/03 05:08:46;;;;;;;203.33;93.57;;;;;;;;;;4342921;32;418333;-80
2023/01/03 05:11:14;;;;;;;253.20;116.77;;;;;;;;;;4355965;32;319194;-80
2023/01/03 05:13:43;;;;;;;242.97;107.40;;;;;;;;;;4345335;32;320095;-79
2023/01/03 05:16:13;;;;;;;201.07;93.73;;;;;;;;;;4355478;32;319669;-80
2023/01/03 05:18:41;;;;;;;185.27;87.73;;;;;;;;;;4343594;32;319147;-80
2023/01/03 05:26:42;;;;;;;172.60;90.40;;;;;;;;;;4345703;32;318745;-80
2023/01/03 05:29:12;;;;;;;179.53;85.97;;;;;;;;;;4355506;32;318764;-80
2023/01/03 05:31:40;;;;;;;178.73;81.87;;;;;;;;;;4345177;32;318711;-80
2023/01/03 05:34:07;;;;;;;179.80;87.93;;;;;;;;;;4354537;32;319020;-80
2023/01/03 05:36:34;;;;;;;182.97;83.90;;;;;;;;;;4345121;32;318776;-81
2023/01/03 05:39:02;;;;;;;189.97;87.00;;;;;;;;;;4355092;32;319079;-80
2023/01/03 05:44:16;;;;;;;159.57;81.97;;;;;;;;;;4353087;32;318703;-80
2023/01/03 05:46:45;;;;;;;156.40;82.17;;;;;;;;;;4334009;32;389403;-81
2023/01/03 05:49:12;;;;;;;182.93;83.97;;;;;;;;;;4344005;32;318937;-79
2023/01/03 05:51:40;;;;;;;162.67;80.53;;;;;;;;;;4344608;32;318956;-79
2023/01/03 05:54:07;;;;;;;144.00;78.40;;;;;;;;;;4354791;32;318959;-80
2023/01/03 05:56:35;;;;;;;154.43;77.73;;;;;;;;;;4347618;32;318710;-78
2023/01/03 05:59:03;;;;;;;180.57;84.07;;;;;;;;;;4355708;32;319041;-80
2023/01/03 06:01:33;;;;;;;163.43;80.83;;;;;;;;;;4345452;32;318582;-79
2023/01/03 06:04:02;;;;;;;151.03;79.07;;;;;;;;;;4354580;32;358655;-80
2023/01/03 06:06:30;;;;;;;192.10;87.77;;;;;;;;;;4325050;32;328783;-79
2023/01/03 06:09:03;;;;;;;191.27;92.70;;;;;;;;;;4355906;32;318999;-80
2023/01/03 06:11:30;;;;;;;195.73;97.30;;;;;;;;;;4346067;32;318800;-79
2023/01/03 06:13:58;;;;;;;197.10;96.17;;;;;;;;;;4357257;32;318698;-79
2023/01/03 06:19:12;;;;;;;191.87;96.77;;;;;;;;;;4356375;32;319664;-80
2023/01/03 06:21:40;;;;;;;202.37;100.77;;;;;;;;;;4346816;32;319040;-79
2023/01/03 06:24:08;;;;;;;197.40;97.53;;;;;;;;;;4357340;32;319960;-80
2023/01/03 06:26:36;;;;;;;285.77;187.03;;;;;;;;;;4346323;32;318965;-80
2023/01/03 06:29:04;;;;;;;190.27;98.73;;;;;;;;;;4355495;32;319855;-80
2023/01/03 06:31:31;;;;;;;174.23;93.47;;;;;;;;;;4345969;32;318852;-80
2023/01/03 06:33:59;;;;;;;175.00;94.20;;;;;;;;;;4356873;32;318795;-80
2023/01/03 06:36:27;;;;;;;186.10;98.20;;;;;;;;;;4344000;32;340872;-81
2023/01/03 06:38:55;;;;;;;194.90;103.27;;;;;;;;;;4345952;32;318736;-79
2023/01/03 06:41:22;;;;;;;211.43;101.77;;;;;;;;;;4336818;32;319805;-80
2023/01/03 06:43:50;;;;;;;198.30;98.83;;;;;;;;;;4356670;32;320074;-80
2023/01/03 06:54:49;;;;;;;221.30;106.10;;;;;;;;;;4344571;32;391109;-79
2023/01/03 06:57:16;;;;;;;224.00;110.13;;;;;;;;;;4354808;32;320144;-79
2023/01/03 06:59:44;;;;;;;215.60;111.73;;;;;;;;;;4344181;32;419475;-81
2023/01/03 07:02:11;;;;;;;230.07;116.77;;;;;;;;;;4355867;32;319961;-81
2023/01/03 07:04:39;;;;;;;237.73;112.93;;;;;;;;;;4347182;32;319896;-80
2023/01/03 07:07:07;;;;;;;232.33;111.63;;;;;;;;;;4354700;32;320014;-81
2023/01/03 07:09:35;;;;;;;231.67;113.00;;;;;;;;;;4346894;32;320054;-80
2023/01/03 07:13:57;;;;;;;230.80;116.03;;;;;;;;;;4354927;32;318658;-81
2023/01/03 07:14:50;;;;;;;234.83;118.87;;;;;;;;;;4344549;32;390881;-79
2023/01/03 07:17:17;;;;;;;232.63;114.57;;;;;;;;;;4336370;32;320171;-80
2023/01/03 07:19:45;;;;;;;232.70;117.77;;;;;;;;;;4342438;32;390897;-81
2023/01/03 07:22:14;;;;;;;261.87;123.37;;;;;;;;;;4356562;32;319744;-79
2023/01/03 07:24:44;;;;;;;255.53;124.03;;;;;;;;;;4345856;32;319572;-81
2023/01/03 07:27:11;;;;;;;287.63;129.87;;;;;;;;;;4354089;32;356202;-81
2023/01/03 07:29:39;;;;;;;263.77;124.63;;;;;;;;;;4346258;32;320058;-80
2023/01/03 07:32:07;;;;;;;232.90;115.57;;;;;;;;;;4355655;32;319639;-81
2023/01/03 07:34:35;;;;;;;263.97;123.60;;;;;;;;;;4346523;32;318482;-81
2023/01/03 07:37:02;;;;;;;279.90;137.43;;;;;;;;;;4355667;32;320149;-80
2023/01/03 07:39:32;;;;;;;275.43;123.57;;;;;;;;;;4346170;32;319694;-82
2023/01/03 07:44:44;;;;;;;263.63;130.27;;;;;;;;;;4340903;32;389897;-79
2023/01/03 07:47:14;;;;;;;289.47;133.53;;;;;;;;;;4356794;32;319747;-81
2023/01/03 07:49:42;;;;;;;272.43;130.00;;;;;;;;;;4343000;32;319561;-80
2023/01/03 07:52:09;;;;;;;251.33;125.20;;;;;;;;;;4353998;32;319631;-80
2023/01/03 07:54:38;;;;;;;236.07;112.57;;;;;;;;;;4345215;32;319800;-80
2023/01/03 07:57:06;;;;;;;221.10;111.13;;;;;;;;;;4356086;32;319834;-80
2023/01/03 07:59:33;;;;;;;257.83;120.00;;;;;;;;;;4344520;32;345974;-79
2023/01/03 08:02:01;;;;;;;257.97;118.30;;;;;;;;;;4356058;32;319910;-80
2023/01/03 08:04:28;;;;;;;248.13;116.33;;;;;;;;;;4343018;32;319672;-79
2023/01/03 08:06:56;;;;;;;264.73;136.70;;;;;;;;;;4355718;32;319752;-79
2023/01/03 08:14:56;;;;;;;273.23;131.57;;;;;;;;;;4344383;32;391220;-80
2023/01/03 08:17:23;;;;;;;278.73;136.30;;;;;;;;;;4344068;32;346726;-79
2023/01/03 08:19:51;;;;;;;302.67;146.57;;;;;;;;;;4355682;32;320015;-78
2023/01/03 08:22:18;;;;;;;316.30;147.93;;;;;;;;;;4354932;32;361551;-79
2023/01/03 08:24:45;;;;;;;318.70;150.63;;;;;;;;;;4342254;32;419116;-79
2023/01/03 08:27:14;;;;;;;311.70;151.33;;;;;;;;;;4342823;32;320123;-84
2023/01/03 08:29:42;;;;;;;338.00;152.60;;;;;;;;;;4337833;32;319906;-80
2023/01/03 08:32:09;;;;;;;321.27;156.27;;;;;;;;;;4353923;32;319856;-79
2023/01/03 08:34:40;;;;;;;314.67;158.67;;;;;;;;;;4345737;32;320057;-80
2023/01/03 08:37:10;;;;;;;328.60;171.80;;;;;;;;;;4354689;32;319911;-85
2023/01/03 08:39:41;;;;;;;324.50;157.10;;;;;;;;;;4344792;32;320084;-83
2023/01/03 08:42:10;;;;;;;304.53;159.67;;;;;;;;;;4354849;32;319731;-82
2023/01/03 08:44:43;;;;;;;329.77;163.43;;;;;;;;;;4342841;32;319654;-82
2023/01/03 08:47:15;;;;;;;339.87;170.47;;;;;;;;;;4352230;32;319819;-86
2023/01/03 08:49:42;;;;;;;356.97;167.27;;;;;;;;;;4344977;32;319734;-81
2023/01/03 08:52:10;;;;;;;352.53;175.37;;;;;;;;;;4355424;32;319783;-83
2023/01/03 08:54:38;;;;;;;359.13;181.03;;;;;;;;;;4342821;32;337686;-82
2023/01/03 08:57:05;;;;;;;330.43;169.97;;;;;;;;;;4354433;32;319895;-85
2023/01/03 08:59:33;;;;;;;314.70;163.77;;;;;;;;;;4345737;32;319846;-79
2023/01/03 09:02:02;;;;;;;334.13;168.23;;;;;;;;;;4355691;32;319805;-81
2023/01/03 09:04:30;;;;;;;323.20;163.57;;;;;;;;;;4343155;32;356635;-78
2023/01/03 09:06:57;;;;;;;347.27;179.17;;;;;;;;;;4354386;32;319975;-78
2023/01/03 09:09:25;;;;;;;341.87;161.33;;;;;;;;;;4345072;32;319925;-85
2023/01/03 09:11:53;;;;;;;312.97;160.17;;;;;;;;;;4357607;32;319642;-83
2023/01/03 09:14:21;;;;;;;290.37;152.80;;;;;;;;;;4332252;32;319878;-82
2023/01/03 09:16:49;;;;;;;317.30;165.73;;;;;;;;;;4354888;32;319843;-84
2023/01/03 09:19:18;;;;;;;303.10;155.03;;;;;;;;;;4356460;32;320082;-85
2023/01/03 09:21:46;;;;;;;280.23;152.37;;;;;;;;;;4343944;32;390699;-84
2023/01/03 09:24:13;;;;;;;263.47;147.13;;;;;;;;;;4354131;32;352159;-85
2023/01/03 09:26:42;;;;;;;267.93;147.73;;;;;;;;;;4344146;32;320019;-86
2023/01/03 09:29:10;;;;;;;235.43;127.47;;;;;;;;;;4353222;32;320086;-84
2023/01/03 09:31:38;;;;;;;223.27;124.97;;;;;;;;;;4345688;32;319756;-86
2023/01/03 09:34:05;;;;;;;219.00;121.10;;;;;;;;;;4357648;32;319800;-85
2023/01/03 09:36:37;;;;;;;223.37;122.53;;;;;;;;;;4348148;32;319782;-87
2023/01/03 09:39:06;;;;;;;244.67;129.70;;;;;;;;;;4358994;32;319233;-85
2023/01/03 09:41:34;;;;;;;238.03;136.60;;;;;;;;;;4345262;32;320074;-85
2023/01/03 09:44:04;;;;;;;253.80;139.47;;;;;;;;;;4356253;32;319557;-86
2023/01/03 09:46:34;;;;;;;270.63;144.77;;;;;;;;;;4346542;32;319918;-89
2023/01/03 09:49:05;;;;;;;298.63;155.10;;;;;;;;;;4357429;32;320123;-84
2023/01/03 10:06:03;;;;;;;336.13;185.13;;;;;;;;;;4344089;32;391221;-77
2023/01/03 10:08:41;;;;;;;353.97;189.20;;;;;;;;;;4344429;32;319790;-80
2023/01/03 10:11:12;;;;;;;387.23;203.30;;;;;;;;;;4357061;32;319897;-78
2023/01/03 10:13:51;;;;;;;342.20;196.57;;;;;;;;;;4346338;32;320016;-80
2023/01/03 10:16:30;;;;;;;337.60;191.33;;;;;;;;;;4346332;32;320006;-82
2023/01/03 10:19:17;;;;;;;329.17;189.23;;;;;;;;;;4356375;32;319872;-80
2023/01/03 10:21:52;;;;;;;349.10;195.77;;;;;;;;;;4343025;32;420516;-79
2023/01/03 10:24:24;;;;;;;399.17;211.73;;;;;;;;;;4345406;32;319708;-81
2023/01/03 10:26:55;;;;;;;360.37;200.23;;;;;;;;;;4357230;32;319931;-80
2023/01/03 10:29:23;;;;;;;332.63;194.40;;;;;;;;;;4347989;32;320273;-81
2023/01/03 10:32:06;;;;;;;346.67;192.17;;;;;;;;;;4356982;32;320282;-80
2023/01/03 10:34:34;;;;;;;348.53;192.70;;;;;;;;;;4345762;32;319971;-81
2023/01/03 10:37:01;;;;;;;331.23;188.20;;;;;;;;;;4356362;32;319901;-81
2023/01/03 10:39:32;;;;;;;322.87;187.40;;;;;;;;;;4346376;32;319829;-80
2023/01/03 10:42:00;;;;;;;353.10;199.53;;;;;;;;;;4356339;32;319915;-80
2023/01/03 10:44:29;;;;;;;459.57;246.10;;;;;;;;;;4345181;32;320095;-80
2023/01/03 10:46:58;;;;;;;403.13;217.47;;;;;;;;;;4355530;32;320118;-80
2023/01/03 10:49:28;;;;;;;365.67;215.17;;;;;;;;;;4345394;32;320066;-80
2023/01/03 10:52:01;;;;;;;378.70;212.40;;;;;;;;;;4356921;32;319962;-80
2023/01/03 10:54:47;;;;;;;353.43;204.33;;;;;;;;;;4324153;32;319831;-81
2023/01/03 10:57:42;;;;;;;348.33;199.17;;;;;;;;;;4354422;32;321947;-80
2023/01/03 11:00:29;;;;;;;331.40;190.13;;;;;;;;;;4319570;32;420401;-80
2023/01/03 11:03:03;;;;;;;313.20;186.73;;;;;;;;;;4337351;32;420276;-80
2023/01/03 11:05:30;;;;;;;350.67;196.37;;;;;;;;;;4349093;32;320026;-80
2023/01/03 11:08:00;;;;;;;342.10;202.47;;;;;;;;;;4355011;32;319723;-80
2023/01/03 11:10:34;;;;;;;339.63;209.90;;;;;;;;;;4344771;32;319978;-78
2023/01/03 11:13:02;;;;;;;351.40;202.23;;;;;;;;;;4357478;32;319767;-86
2023/01/03 11:15:38;;;;;;;327.73;187.03;;;;;;;;;;4346071;32;320087;-78
2023/01/03 11:18:17;;;;;;;321.30;189.90;;;;;;;;;;4354598;32;318885;-83
2023/01/03 11:20:49;;;;;;;329.27;193.27;;;;;;;;;;4343664;32;388451;-78
2023/01/03 11:23:22;;;;;;;327.77;190.90;;;;;;;;;;4354535;32;320242;-80
2023/01/03 11:25:59;;;;;;;318.50;188.47;;;;;;;;;;4340676;32;421589;-80
2023/01/03 11:28:54;;;;;;;214.10;129.43;;;;;;;;;;4345698;32;321220;-76
2023/01/03 11:31:39;;;;;;;189.87;120.17;;;;;;;;;;4337350;32;320645;-83
2023/01/03 11:34:21;;;;;;;300.60;176.53;;;;;;;;;;4355220;32;319938;-82
2023/01/03 11:36:52;;;;;;;310.00;181.73;;;;;;;;;;4342578;32;423008;-85
2023/01/03 11:39:41;;;;;;;302.47;172.37;;;;;;;;;;4341478;32;321088;-84
2023/01/03 11:42:31;;;;;;;253.83;152.23;;;;;;;;;;4355182;32;320842;-81
2023/01/03 11:45:33;;;;;;;255.37;148.30;;;;;;;;;;4343056;32;391669;-80
2023/01/03 11:48:14;;;;;;;205.50;126.20;;;;;;;;;;4333521;32;422854;-84
2023/01/03 11:50:50;;;;;;;210.77;125.43;;;;;;;;;;4344511;32;320920;-80
2023/01/03 11:53:31;;;;;;;219.60;129.30;;;;;;;;;;4354557;32;343319;-79
2023/01/03 11:56:10;;;;;;;219.30;124.53;;;;;;;;;;4342046;32;421579;-79
2023/01/03 11:59:06;;;;;;;162.80;93.47;;;;;;;;;;4344808;32;339808;-80
2023/01/03 12:01:55;;;;;;;157.83;94.90;;;;;;;;;;4334177;32;320268;-80
2023/01/03 12:04:30;;;;;;;184.00;104.63;;;;;;;;;;4345754;32;318709;-79
2023/01/03 12:07:11;;;;;;;170.80;103.20;;;;;;;;;;4354778;32;319911;-80
2023/01/03 12:09:47;;;;;;;176.43;109.27;;;;;;;;;;4344194;32;319747;-80
2023/01/03 12:12:44;;;;;;;205.97;116.10;;;;;;;;;;4354547;32;319676;-80
2023/01/03 12:15:21;;;;;;;198.20;118.20;;;;;;;;;;4338276;32;423392;-79
2023/01/03 12:17:53;;;;;;;207.80;120.63;;;;;;;;;;4330836;32;391469;-79
2023/01/03 12:20:24;;;;;;;177.40;114.13;;;;;;;;;;4343843;32;319856;-79
2023/01/03 12:22:55;;;;;;;181.10;105.67;;;;;;;;;;4355116;32;320048;-80
2023/01/03 12:25:28;;;;;;;166.90;104.20;;;;;;;;;;4343464;32;350737;-79
2023/01/03 12:28:02;;;;;;;141.30;89.93;;;;;;;;;;4356496;32;318581;-79
2023/01/03 12:30:39;;;;;;;136.93;88.10;;;;;;;;;;4345732;32;318885;-81
2023/01/03 12:33:20;;;;;;;151.80;94.70;;;;;;;;;;4356094;32;318785;-80
2023/01/03 12:35:55;;;;;;;163.23;99.57;;;;;;;;;;4342736;32;419333;-79
2023/01/03 12:38:28;;;;;;;135.63;86.10;;;;;;;;;;4344895;32;318945;-80
2023/01/03 12:40:59;;;;;;;129.57;81.93;;;;;;;;;;4355697;32;319018;-80
2023/01/03 12:43:32;;;;;;;120.67;70.47;;;;;;;;;;4345306;32;318884;-80
2023/01/03 12:46:07;;;;;;;112.73;72.30;;;;;;;;;;4355008;32;318897;-79
2023/01/03 12:48:49;;;;;;;128.20;82.20;;;;;;;;;;4345263;32;319060;-80
2023/01/03 12:51:19;;;;;;;147.10;92.10;;;;;;;;;;4353227;32;319132;-80
2023/01/03 12:53:51;;;;;;;154.40;94.10;;;;;;;;;;4342329;32;418344;-84
2023/01/03 12:56:41;;;;;;;154.93;96.47;;;;;;;;;;4355354;32;318915;-80
2023/01/03 12:59:28;;;;;;;161.73;99.30;;;;;;;;;;4341490;32;421749;-80
2023/01/03 13:02:00;;;;;;;155.73;96.30;;;;;;;;;;4343016;32;419428;-80
2023/01/03 13:04:33;;;;;;;173.67;100.67;;;;;;;;;;4344025;32;319111;-80
2023/01/03 13:07:07;;;;;;;178.03;105.43;;;;;;;;;;4355890;32;320783;-80
2023/01/03 13:09:38;;;;;;;154.30;99.50;;;;;;;;;;4344492;32;321136;-81
2023/01/03 13:12:08;;;;;;;148.03;92.43;;;;;;;;;;4354682;32;319872;-80
2023/01/03 13:14:53;;;;;;;138.97;88.77;;;;;;;;;;4345286;32;320001;-79
2023/01/03 13:17:24;;;;;;;133.43;86.27;;;;;;;;;;4346009;32;319759;-81
2023/01/03 13:19:59;;;;;;;142.67;84.30;;;;;;;;;;4355506;32;320099;-80
2023/01/03 13:22:48;;;;;;;139.70;91.67;;;;;;;;;;4343751;32;320133;-80
2023/01/03 13:25:31;;;;;;;167.43;104.47;;;;;;;;;;4355339;32;320571;-80
2023/01/03 13:27:59;;;;;;;150.43;95.07;;;;;;;;;;4342494;32;421406;-80
2023/01/03 13:30:28;;;;;;;148.20;90.47;;;;;;;;;;4342597;32;320349;-80
2023/01/03 13:33:19;;;;;;;135.47;89.23;;;;;;;;;;4354632;32;319762;-80
2023/01/03 13:35:59;;;;;;;140.43;87.80;;;;;;;;;;4340249;32;420294;-80
2023/01/03 13:38:30;;;;;;;141.43;85.20;;;;;;;;;;4344291;32;319959;-79
2023/01/03 13:41:00;;;;;;;126.93;80.17;;;;;;;;;;4354648;32;319858;-80
2023/01/03 13:43:33;;;;;;;129.13;82.53;;;;;;;;;;4345908;32;320044;-80
2023/01/03 13:46:08;;;;;;;151.37;97.17;;;;;;;;;;4355179;32;320334;-80
2023/01/03 13:48:41;;;;;;;160.47;102.10;;;;;;;;;;4343502;32;319846;-79
2023/01/03 13:51:32;;;;;;;179.80;108.23;;;;;;;;;;4354976;32;321161;-79
2023/01/03 13:54:02;;;;;;;194.60;116.43;;;;;;;;;;4341097;32;421386;-79
2023/01/03 13:56:32;;;;;;;215.33;125.20;;;;;;;;;;4342556;32;321059;-80
2023/01/03 13:59:07;;;;;;;215.47;131.67;;;;;;;;;;4353724;32;320974;-81
2023/01/03 14:02:04;;;;;;;219.60;134.80;;;;;;;;;;4344003;32;321008;-79
2023/01/03 14:05:19;;;;;;;235.40;144.63;;;;;;;;;;4341589;32;321037;-80
2023/01/03 14:08:13;;;;;;;255.77;148.50;;;;;;;;;;4340953;32;421551;-80
2023/01/03 14:11:09;;;;;;;257.07;159.77;;;;;;;;;;4344126;32;321241;-80
2023/01/03 14:13:38;;;;;;;260.47;155.70;;;;;;;;;;4341856;32;321046;-79
2023/01/03 14:16:25;;;;;;;260.97;145.90;;;;;;;;;;4354575;32;321130;-80
2023/01/03 14:19:03;;;;;;;247.63;139.33;;;;;;;;;;4344681;32;421764;-80
2023/01/03 14:21:41;;;;;;;220.07;125.33;;;;;;;;;;4333659;32;321077;-80
2023/01/03 14:24:17;;;;;;;226.57;127.80;;;;;;;;;;4358113;32;320814;-80
2023/01/03 14:26:44;;;;;;;602.00;378.20;;;;;;;;;;4344649;32;421260;-80
2023/01/03 14:29:18;;;;;;;308.07;178.50;;;;;;;;;;4355236;32;321073;-80
2023/01/03 14:31:48;;;;;;;215.50;130.60;;;;;;;;;;4342698;32;422133;-79
2023/01/03 14:34:25;;;;;;;195.83;120.37;;;;;;;;;;4357326;32;320956;-80
2023/01/03 14:37:01;;;;;;;179.07;115.83;;;;;;;;;;4342852;32;424772;-82
2023/01/03 14:39:31;;;;;;;186.47;115.00;;;;;;;;;;4347095;32;321427;-79
2023/01/03 14:42:00;;;;;;;215.27;125.87;;;;;;;;;;4356733;32;320893;-79
2023/01/03 14:44:28;;;;;;;186.20;111.33;;;;;;;;;;4347035;32;321293;-79
2023/01/03 14:46:59;;;;;;;186.07;110.03;;;;;;;;;;4355088;32;321568;-79
2023/01/03 14:49:40;;;;;;;170.00;106.53;;;;;;;;;;4345929;32;342823;-79
2023/01/03 14:52:16;;;;;;;174.73;109.93;;;;;;;;;;4357957;32;321131;-79
2023/01/03 14:54:47;;;;;;;187.30;116.70;;;;;;;;;;4346057;32;320906;-79
2023/01/03 14:57:24;;;;;;;193.70;120.10;;;;;;;;;;4355647;32;320947;-79
2023/01/03 14:59:52;;;;;;;206.30;130.23;;;;;;;;;;4344237;32;420520;-80
2023/01/03 15:02:20;;;;;;;225.33;136.07;;;;;;;;;;4346111;32;320965;-80
2023/01/03 15:04:52;;;;;;;217.27;130.17;;;;;;;;;;4356661;32;321104;-79
2023/01/03 15:07:33;;;;;;;215.07;129.77;;;;;;;;;;4344351;32;382847;-80
2023/01/03 15:10:18;;;;;;;202.13;118.53;;;;;;;;;;4355209;32;320976;-80
2023/01/03 15:12:48;;;;;;;181.20;107.83;;;;;;;;;;4344182;32;421478;-79
2023/01/03 15:15:21;;;;;;;186.30;103.30;;;;;;;;;;4356443;32;319918;-79
2023/01/03 15:17:51;;;;;;;170.93;99.47;;;;;;;;;;4343695;32;419800;-79
2023/01/03 15:20:23;;;;;;;162.20;98.90;;;;;;;;;;4356787;32;319225;-81